createdAt,value
2018-02-06T00:01:47.421Z,7.40
2018-02-06T00:04:15.684Z,7.40
2018-02-06T00:06:43.224Z,7.40
2018-02-06T00:09:10.711Z,7.60
2018-02-06T00:11:38.197Z,7.30
2018-02-06T00:14:06.459Z,7.40
2018-02-06T00:16:34.708Z,7.50
2018-02-06T00:19:02.212Z,7.40
2018-02-06T00:21:29.713Z,7.40
2018-02-06T00:23:57.192Z,7.50
2018-02-06T00:26:24.714Z,7.50
2018-02-06T00:28:52.188Z,7.60
2018-02-06T00:31:19.688Z,7.60
2018-02-06T00:33:47.960Z,7.50
2018-02-06T00:36:15.504Z,7.50
2018-02-06T00:38:42.999Z,7.30
2018-02-06T00:41:11.244Z,6.90
2018-02-06T00:43:38.720Z,6.80
2018-02-06T00:46:07.007Z,7.10
2018-02-06T00:48:34.493Z,7.10
2018-02-06T00:51:02.038Z,7.20
2018-02-06T00:53:29.525Z,7.20
2018-02-06T00:55:57.036Z,7.30
2018-02-06T00:58:25.324Z,7.10
2018-02-06T01:00:53.565Z,7.20
2018-02-06T01:03:21.050Z,7.20
2018-02-06T01:05:49.361Z,7.50
2018-02-06T01:08:16.884Z,7.40
2018-02-06T01:10:45.119Z,7.20
2018-02-06T01:13:12.640Z,7.10
2018-02-06T01:15:40.116Z,7.30
2018-02-06T01:18:07.588Z,7.40
2018-02-06T01:20:35.068Z,7.50
2018-02-06T01:23:02.539Z,7.50
2018-02-06T01:25:30.109Z,7.40
2018-02-06T01:27:57.588Z,7.10
2018-02-06T01:30:25.829Z,7.20
2018-02-06T01:32:53.324Z,7.20
2018-02-06T01:35:21.572Z,7.10
2018-02-06T01:37:49.046Z,7.10
2018-02-06T01:40:17.334Z,7.30
2018-02-06T01:42:45.584Z,7.10
2018-02-06T01:45:13.065Z,7.10
2018-02-06T01:47:41.340Z,7.30
2018-02-06T01:50:09.578Z,7.00
2018-02-06T01:52:37.052Z,7.00
2018-02-06T01:55:04.549Z,7.00
2018-02-06T01:57:32.028Z,6.90
2018-02-06T01:59:59.506Z,7.10
2018-02-06T02:02:27.000Z,7.30
2018-02-06T02:04:54.470Z,7.20
2018-02-06T02:07:22.709Z,7.10
2018-02-06T02:09:50.198Z,7.10
2018-02-06T02:12:18.436Z,7.30
2018-02-06T02:14:45.969Z,7.20
2018-02-06T02:17:13.500Z,7.10
2018-02-06T02:19:41.753Z,7.20
2018-02-06T02:22:09.248Z,7.10
2018-02-06T02:24:36.729Z,7.30
2018-02-06T02:27:04.244Z,7.10
2018-02-06T02:29:31.724Z,7.10
2018-02-06T02:31:59.968Z,7.30
2018-02-06T02:34:27.476Z,7.20
2018-02-06T02:36:54.960Z,7.20
2018-02-06T02:39:22.460Z,7.00
2018-02-06T04:40:01.603Z,6.70
2018-02-06T04:42:29.123Z,6.80
2018-02-06T04:44:56.634Z,6.90
2018-02-06T04:47:24.111Z,6.90
2018-02-06T04:49:51.629Z,6.70
2018-02-06T04:52:19.110Z,6.90
2018-02-06T04:54:46.575Z,6.90
2018-02-06T04:57:14.076Z,6.90
2018-02-06T04:59:41.553Z,6.90
2018-02-06T05:02:09.033Z,6.80
2018-02-06T05:04:36.539Z,6.80
2018-02-06T05:07:04.792Z,6.90
2018-02-06T05:09:32.267Z,6.90
2018-02-06T05:12:00.525Z,6.90
2018-02-06T05:14:28.009Z,6.90
2018-02-06T05:16:56.256Z,6.70
2018-02-06T05:19:23.745Z,6.70
2018-02-06T05:21:51.987Z,6.50
2018-02-06T05:24:19.508Z,6.40
2018-02-06T05:26:46.982Z,6.60
2018-02-06T05:29:14.468Z,6.50
2018-02-06T05:31:41.964Z,6.60
2018-02-06T05:34:10.203Z,6.60
2018-02-06T05:36:37.692Z,6.60
2018-02-06T05:39:05.951Z,6.70
2018-02-06T05:41:33.423Z,6.70
2018-02-06T05:44:01.673Z,6.80
2018-02-06T05:46:29.169Z,6.80
2018-02-06T05:48:57.572Z,6.60
2018-02-06T05:51:25.054Z,6.50
2018-02-06T05:53:52.560Z,6.70
2018-02-06T05:56:20.861Z,6.60
2018-02-06T05:58:48.340Z,6.50
2018-02-06T06:01:15.873Z,6.70
2018-02-06T06:03:43.384Z,6.50
2018-02-06T06:06:10.868Z,6.50
2018-02-06T06:08:38.364Z,6.60
2018-02-06T06:11:05.841Z,6.70
2018-02-06T06:13:33.317Z,6.60
2018-02-06T06:16:00.820Z,6.70
2018-02-06T06:18:28.303Z,6.80
2018-02-06T06:20:55.863Z,6.80
2018-02-06T06:23:23.380Z,6.70
2018-02-06T06:25:51.643Z,6.50
2018-02-06T06:28:19.141Z,6.40
2018-02-06T06:30:46.643Z,6.70
2018-02-06T06:33:14.133Z,6.70
2018-02-06T06:35:42.376Z,6.80
2018-02-06T06:38:09.862Z,6.80
2018-02-06T06:40:38.120Z,6.50
2018-02-06T06:43:05.621Z,6.40
2018-02-06T06:45:33.869Z,6.30
2018-02-06T06:48:01.341Z,6.30
2018-02-06T06:50:29.650Z,6.30
2018-02-06T06:52:57.152Z,6.30
2018-02-06T06:55:24.648Z,6.20
2018-02-06T06:57:52.988Z,6.50
2018-02-06T07:00:20.497Z,6.40
2018-02-06T07:02:48.016Z,6.30
2018-02-06T07:05:15.504Z,6.20
2018-02-06T07:07:43.751Z,6.50
2018-02-06T07:10:11.247Z,6.50
2018-02-06T07:12:38.792Z,6.20
2018-02-06T07:15:07.047Z,6.20
2018-02-06T07:17:34.546Z,6.20
2018-02-06T07:20:02.040Z,6.40
2018-02-06T07:22:29.523Z,6.40
2018-02-06T07:24:57.047Z,6.60
2018-02-06T07:27:24.571Z,6.60
2018-02-06T07:29:52.852Z,6.60
2018-02-06T07:32:21.128Z,6.30
2018-02-06T07:34:49.368Z,6.30
2018-02-06T07:37:16.864Z,6.30
2018-02-06T07:39:45.676Z,6.70
2018-02-06T07:42:13.144Z,6.60
2018-02-06T07:44:40.642Z,6.50
2018-02-06T07:47:08.115Z,6.50
2018-02-06T07:49:35.592Z,6.50
2018-02-06T07:52:03.868Z,6.50
2018-02-06T07:54:32.142Z,6.20
2018-02-06T07:56:59.643Z,6.10
2018-02-06T07:59:27.132Z,6.20
2018-02-06T08:01:54.632Z,6.20
2018-02-06T08:04:22.118Z,6.20
2018-02-06T08:06:49.608Z,6.50
2018-02-06T08:09:17.098Z,6.50
2018-02-06T08:11:45.355Z,6.60
2018-02-06T08:14:12.864Z,6.50
2018-02-06T08:16:40.363Z,6.60
2018-02-06T08:19:07.831Z,6.50
2018-02-06T08:21:35.336Z,6.50
2018-02-06T08:24:02.810Z,6.30
2018-02-06T08:26:30.320Z,6.40
2018-02-06T08:28:58.607Z,6.60
2018-02-06T08:31:26.889Z,6.60
2018-02-06T08:33:54.368Z,6.60
2018-02-06T08:36:21.868Z,6.40
2018-02-06T08:38:49.349Z,6.40
2018-02-06T08:41:17.613Z,6.40
2018-02-06T08:43:45.112Z,6.40
2018-02-06T08:46:12.597Z,6.40
2018-02-06T08:48:40.120Z,6.50
2018-02-06T08:51:07.674Z,6.30
2018-02-06T08:53:35.957Z,6.40
2018-02-06T08:56:04.243Z,6.40
2018-02-06T08:58:31.727Z,6.40
2018-02-06T09:00:59.212Z,6.40
2018-02-06T09:03:26.706Z,6.20
2018-02-06T09:05:54.225Z,6.40
2018-02-06T09:08:21.676Z,6.50
2018-02-06T09:10:49.148Z,6.50
2018-02-06T09:13:16.631Z,6.50
2018-02-06T09:15:44.119Z,6.20
2018-02-06T09:18:11.598Z,6.20
2018-02-06T09:20:39.100Z,6.30
2018-02-06T09:23:06.585Z,6.50
2018-02-06T09:25:34.828Z,6.60
2018-02-06T09:28:02.322Z,6.60
2018-02-06T09:30:29.803Z,6.70
2018-02-06T09:32:57.269Z,6.50
2018-02-06T09:35:24.752Z,6.30
2018-02-06T09:37:52.228Z,6.20
2018-02-06T09:40:20.516Z,6.40
2018-02-06T09:42:48.770Z,6.40
2018-02-06T09:45:16.244Z,6.30
2018-02-06T09:47:44.533Z,6.50
2018-02-06T09:50:12.776Z,6.60
2018-02-06T09:52:40.290Z,6.60
2018-02-06T09:55:08.546Z,6.60
2018-02-06T09:57:36.832Z,6.60
2018-02-06T10:00:05.068Z,6.60
2018-02-06T10:02:32.547Z,6.50
2018-02-06T10:05:00.037Z,6.80
2018-02-06T10:07:27.544Z,6.80
2018-02-06T10:09:55.051Z,6.70
2018-02-06T10:12:23.293Z,6.60
2018-02-06T10:14:50.840Z,6.50
2018-02-06T10:17:18.312Z,6.70
2018-02-06T10:19:45.808Z,6.70
2018-02-06T10:22:13.328Z,6.70
2018-02-06T10:24:40.804Z,6.80
2018-02-06T10:27:08.284Z,6.70
2018-02-06T10:29:36.544Z,6.60
2018-02-06T10:32:04.785Z,6.50
2018-02-06T10:34:32.277Z,6.40
2018-02-06T10:37:00.539Z,6.70
2018-02-06T10:39:28.016Z,6.70
2018-02-06T10:41:56.259Z,6.50
2018-02-06T10:44:23.754Z,6.50
2018-02-06T10:46:52.030Z,6.70
2018-02-06T10:49:20.348Z,6.70
2018-02-06T10:51:47.907Z,6.70
2018-02-06T10:54:15.398Z,6.80
2018-02-06T10:56:42.891Z,6.80
2018-02-06T10:59:11.135Z,6.60
2018-02-06T11:01:38.662Z,6.60
2018-02-06T11:04:06.147Z,6.70
2018-02-06T11:06:33.627Z,6.50
2018-02-06T11:09:02.324Z,6.40
2018-02-06T11:11:29.884Z,6.40
2018-02-06T11:13:58.143Z,6.60
2018-02-06T11:16:25.640Z,6.50
2018-02-06T11:18:53.908Z,6.30
2018-02-06T11:21:22.149Z,6.20
2018-02-06T11:23:49.636Z,6.20
2018-02-06T11:26:17.893Z,6.40
2018-02-06T11:28:45.384Z,6.30
2018-02-06T11:31:13.644Z,6.50
2018-02-06T11:33:41.121Z,6.50
2018-02-06T11:36:09.401Z,6.40
2018-02-06T11:38:36.892Z,6.30
2018-02-06T11:41:04.466Z,6.30
2018-02-06T11:43:31.955Z,6.40
2018-02-06T11:45:59.443Z,6.40
2018-02-06T11:48:26.986Z,6.50
2018-02-06T11:50:54.592Z,6.40
2018-02-06T11:53:22.075Z,6.50
2018-02-06T11:55:49.568Z,6.50
2018-02-06T11:58:17.843Z,6.20
2018-02-06T12:00:46.131Z,6.20
2018-02-06T12:03:13.626Z,6.20
2018-02-06T12:05:41.111Z,6.30
2018-02-06T12:08:09.164Z,6.30
2018-02-06T12:10:36.720Z,6.30
2018-02-06T12:13:04.243Z,6.20
2018-02-06T12:15:32.507Z,6.30
2018-02-06T12:18:00.936Z,6.20
2018-02-06T12:20:28.416Z,6.20
2018-02-06T12:22:55.910Z,6.20
2018-02-06T12:25:24.184Z,6.20
2018-02-06T12:27:52.435Z,6.30
2018-02-06T12:30:19.991Z,6.30
2018-02-06T12:32:47.482Z,6.40
2018-02-06T12:35:15.543Z,6.30
2018-02-06T12:37:43.100Z,6.20
2018-02-06T12:40:11.380Z,6.20
2018-02-06T12:42:39.659Z,6.30
2018-02-06T12:45:07.959Z,6.10
2018-02-06T12:47:36.252Z,6.20
2018-02-06T12:50:03.740Z,6.10
2018-02-06T12:52:31.239Z,6.20
2018-02-06T12:54:59.492Z,5.90
2018-02-06T12:57:27.066Z,5.90
2018-02-06T12:59:54.673Z,6.10
2018-02-06T13:02:22.157Z,6.00
2018-02-06T13:04:49.739Z,6.10
2018-02-06T13:07:17.315Z,6.30
2018-02-06T13:09:45.619Z,6.10
2018-02-06T13:12:13.153Z,6.00
2018-02-06T13:14:41.431Z,6.10
2018-02-06T13:17:09.676Z,6.20
2018-02-06T13:19:37.164Z,6.20
2018-02-06T13:22:05.409Z,5.90
2018-02-06T13:24:32.924Z,5.90
2018-02-06T13:27:00.429Z,5.90
2018-02-06T13:29:27.946Z,6.10
2018-02-06T13:31:55.448Z,6.20
2018-02-06T13:34:22.924Z,6.00
2018-02-06T13:36:50.420Z,6.10
2018-02-06T13:39:18.688Z,5.90
2018-02-06T13:41:46.927Z,5.80
2018-02-06T13:44:14.423Z,5.70
2018-02-06T13:46:42.685Z,6.00
2018-02-06T13:49:10.951Z,6.00
2018-02-06T13:51:39.239Z,5.90
2018-02-06T13:54:06.720Z,5.80
2018-02-06T13:56:34.975Z,5.80
2018-02-06T13:59:03.249Z,5.90
2018-02-06T14:01:30.728Z,5.80
2018-02-06T14:03:58.994Z,5.70
2018-02-06T14:06:27.227Z,5.80
2018-02-06T14:08:54.725Z,5.70
2018-02-06T14:11:23.088Z,5.80
2018-02-06T14:13:50.561Z,5.60
2018-02-06T14:16:18.831Z,5.50
2018-02-06T14:18:46.342Z,5.50
2018-02-06T14:21:13.822Z,5.80
2018-02-06T14:23:41.340Z,5.80
2018-02-06T14:26:09.596Z,5.80
2018-02-06T14:28:37.871Z,5.80
2018-02-06T14:31:06.140Z,5.80
2018-02-06T14:33:33.620Z,5.70
2018-02-06T14:36:01.102Z,5.60
2018-02-06T14:38:28.596Z,5.70
2018-02-06T14:40:56.063Z,5.80
2018-02-06T14:43:23.545Z,5.90
2018-02-06T14:45:51.819Z,5.90
2018-02-06T14:48:20.092Z,5.90
2018-02-06T14:50:47.569Z,5.90
2018-02-06T14:53:15.838Z,5.80
2018-02-06T14:55:44.088Z,5.70
2018-02-06T14:58:11.587Z,5.60
2018-02-06T15:00:39.849Z,5.60
2018-02-06T15:03:08.104Z,5.60
2018-02-06T15:05:35.591Z,5.60
2018-02-06T15:08:03.099Z,5.70
2018-02-06T15:10:30.579Z,5.60
2018-02-06T15:12:58.828Z,5.60
2018-02-06T15:15:26.328Z,5.60
2018-02-06T15:17:53.808Z,5.40
2018-02-06T15:20:22.076Z,5.30
2018-02-06T15:22:50.341Z,5.40
2018-02-06T15:25:18.588Z,5.30
2018-02-06T15:27:46.077Z,5.30
2018-02-06T15:30:13.753Z,5.30
2018-02-06T15:32:41.995Z,5.20
2018-02-06T15:35:09.478Z,5.20
2018-02-06T15:37:37.758Z,5.50
2018-02-06T15:40:06.034Z,5.60
2018-02-06T15:42:34.315Z,5.50
2018-02-06T15:45:02.589Z,5.60
2018-02-06T15:47:30.064Z,5.50
2018-02-06T15:49:58.308Z,5.50
2018-02-06T15:52:25.810Z,5.50
2018-02-06T15:54:53.291Z,5.50
2018-02-06T15:57:20.850Z,5.40
2018-02-06T15:59:48.364Z,5.40
2018-02-06T16:02:16.611Z,5.10
2018-02-06T16:04:44.108Z,5.10
2018-02-06T16:07:12.358Z,5.20
2018-02-06T16:09:40.871Z,5.20
2018-02-06T16:12:09.140Z,5.30
2018-02-06T16:14:37.416Z,5.00
2018-02-06T16:17:05.668Z,4.90
2018-02-06T16:19:33.171Z,4.90
2018-02-06T16:22:00.648Z,5.00
2018-02-06T16:24:28.144Z,5.10
2018-02-06T16:26:55.628Z,5.00
2018-02-06T16:29:24.093Z,5.40
2018-02-06T16:31:51.591Z,5.30
2018-02-06T16:34:19.195Z,5.10
2018-02-06T16:36:46.686Z,5.20
2018-02-06T16:39:14.957Z,5.10
2018-02-06T16:41:42.467Z,5.00
2018-02-06T16:44:10.001Z,5.00
2018-02-06T16:46:38.264Z,5.20
2018-02-06T16:49:06.526Z,5.20
2018-02-06T16:51:34.055Z,5.10
2018-02-06T16:54:01.563Z,5.10
2018-02-06T16:56:29.829Z,5.00
2018-02-06T16:58:58.107Z,5.00
2018-02-06T17:01:26.383Z,4.90
2018-02-06T17:03:54.652Z,5.00
2018-02-06T17:06:22.184Z,4.90
2018-02-06T17:08:49.768Z,5.10
2018-02-06T17:11:17.536Z,5.40
2018-02-06T17:13:45.844Z,6.30
2018-02-06T17:16:14.085Z,5.30
2018-02-06T17:18:41.715Z,5.30
2018-02-06T17:21:09.193Z,6.10
2018-02-06T17:23:36.675Z,6.90
2018-02-06T17:26:04.195Z,7.10
2018-02-06T17:28:31.680Z,6.60
2018-02-06T17:30:59.960Z,5.90
2018-02-06T17:33:27.481Z,5.90
2018-02-06T17:35:54.986Z,5.80
2018-02-06T17:38:22.470Z,5.30
2018-02-06T17:40:50.728Z,6.10
2018-02-06T17:43:18.203Z,6.10
2018-02-06T17:45:46.511Z,6.50
2018-02-06T17:48:14.036Z,6.50
2018-02-06T17:50:42.315Z,5.90
2018-02-06T17:53:11.073Z,5.40
2018-02-06T17:55:39.475Z,5.40
2018-02-06T17:58:07.330Z,5.70
2018-02-06T18:00:34.796Z,5.60
2018-02-06T18:03:02.447Z,5.30
2018-02-06T18:05:30.306Z,5.10
2018-02-06T18:07:58.467Z,4.80
2018-02-06T18:10:27.013Z,4.80
2018-02-06T18:12:54.729Z,4.80
2018-02-06T18:15:22.296Z,4.60
2018-02-06T18:17:49.794Z,4.60
2018-02-06T18:20:17.291Z,4.90
2018-02-06T18:22:44.791Z,4.60
2018-02-06T18:25:13.802Z,5.50
2018-02-06T18:27:41.390Z,5.50
2018-02-06T18:30:08.923Z,4.80
2018-02-06T18:32:38.266Z,5.10
2018-02-06T18:35:05.785Z,5.00
2018-02-06T18:37:34.357Z,5.10
2018-02-06T18:40:03.905Z,4.90
2018-02-06T18:42:32.459Z,4.90
2018-02-06T18:45:00.806Z,4.40
2018-02-06T18:47:28.417Z,4.30
2018-02-06T18:49:56.531Z,4.50
2018-02-06T18:52:24.678Z,4.40
2018-02-06T18:54:53.059Z,4.50
2018-02-06T18:57:20.926Z,4.50
2018-02-06T18:59:48.619Z,4.50
2018-02-06T19:02:16.401Z,4.50
2018-02-06T19:04:43.898Z,4.60
2018-02-06T19:07:12.500Z,4.50
2018-02-06T19:09:40.676Z,4.40
2018-02-06T19:12:08.171Z,4.40
2018-02-06T19:14:35.648Z,4.50
2018-02-06T19:17:03.154Z,4.60
2018-02-06T19:19:30.632Z,4.60
2018-02-06T19:21:58.104Z,4.60
2018-02-06T19:24:25.603Z,4.60
2018-02-06T19:26:53.980Z,4.20
2018-02-06T19:29:22.726Z,4.60
2018-02-06T19:31:50.251Z,4.60
2018-02-06T19:34:17.772Z,4.40
2018-02-06T19:36:45.288Z,4.40
2018-02-06T19:39:12.777Z,4.30
2018-02-06T19:41:40.251Z,4.20
2018-02-06T19:44:08.551Z,4.50
2018-02-06T19:46:36.806Z,4.60
2018-02-06T19:49:05.052Z,4.60
2018-02-06T19:51:32.560Z,4.50
2018-02-06T19:54:00.846Z,4.20
2018-02-06T19:56:28.405Z,4.20
2018-02-06T19:58:56.659Z,4.30
2018-02-06T20:01:24.964Z,4.40
2018-02-06T20:03:52.500Z,4.40
2018-02-06T20:06:20.741Z,4.50
2018-02-06T20:08:48.289Z,4.40
2018-02-06T20:11:16.058Z,4.60
2018-02-06T20:13:44.344Z,4.70
2018-02-06T20:16:11.836Z,4.70
2018-02-06T20:18:40.144Z,4.70
2018-02-06T20:21:07.628Z,4.70
2018-02-06T20:23:35.127Z,4.60
2018-02-06T20:26:02.618Z,4.50
2018-02-06T20:28:30.158Z,4.80
2018-02-06T20:30:58.412Z,4.60
2018-02-06T20:33:25.887Z,4.50
2018-02-06T20:35:53.385Z,4.70
2018-02-06T20:38:20.862Z,4.70
2018-02-06T20:40:48.345Z,4.70
2018-02-06T20:43:15.879Z,4.50
2018-02-06T20:45:43.368Z,4.50
2018-02-06T20:48:10.853Z,4.40
2018-02-06T20:50:39.157Z,4.80
2018-02-06T20:53:07.420Z,4.50
2018-02-06T20:55:35.701Z,4.80
2018-02-06T20:58:03.237Z,4.80
2018-02-06T21:00:31.494Z,4.90
2018-02-06T21:02:59.124Z,4.90
2018-02-06T21:05:26.729Z,5.00
2018-02-06T21:07:54.199Z,5.00
2018-02-06T21:10:22.018Z,4.90
2018-02-06T21:12:49.554Z,5.00
2018-02-06T21:15:17.032Z,4.90
2018-02-06T21:17:44.520Z,4.90
2018-02-06T21:20:11.997Z,4.80
2018-02-06T21:22:40.451Z,5.00
2018-02-06T21:25:08.933Z,4.90
2018-02-06T21:27:36.457Z,4.90
2018-02-06T21:30:04.294Z,5.00
2018-02-06T21:32:33.232Z,5.00
2018-02-06T21:35:00.751Z,5.00
2018-02-06T21:37:29.091Z,5.00
2018-02-06T21:39:56.645Z,5.00
2018-02-06T21:42:24.660Z,5.10
2018-02-06T21:44:52.967Z,5.10
2018-02-06T21:47:20.775Z,5.10
2018-02-06T21:49:48.398Z,5.10
2018-02-06T21:52:16.179Z,5.00
2018-02-06T21:54:43.723Z,5.20
2018-02-06T21:57:11.369Z,5.30
2018-02-06T21:59:39.162Z,5.20
2018-02-06T22:02:06.871Z,5.90
2018-02-06T22:04:35.172Z,5.50
2018-02-06T22:07:03.690Z,5.50
2018-02-06T22:09:31.360Z,5.40
2018-02-06T22:11:58.993Z,5.40
2018-02-06T22:14:26.555Z,5.30
2018-02-06T22:16:54.924Z,5.40
2018-02-06T22:19:23.230Z,5.30
2018-02-06T22:21:50.709Z,5.30
2018-02-06T22:24:18.180Z,5.10
2018-02-06T22:26:45.668Z,5.10
2018-02-06T22:29:13.912Z,5.20
2018-02-06T22:31:41.400Z,5.20
2018-02-06T22:34:09.647Z,5.30
2018-02-06T22:36:37.125Z,5.20
2018-02-06T22:39:04.628Z,5.30
2018-02-06T22:41:33.337Z,5.20
2018-02-06T22:44:00.989Z,5.10
2018-02-06T22:46:28.561Z,5.10
2018-02-06T22:48:56.039Z,5.30
2018-02-06T22:51:23.553Z,5.20
2018-02-06T22:53:51.036Z,5.40
2018-02-06T22:56:18.513Z,5.10
2018-02-06T22:58:46.010Z,5.20
2018-02-06T23:01:14.264Z,5.00
2018-02-06T23:03:41.761Z,4.90
2018-02-06T23:06:09.464Z,5.00
2018-02-06T23:08:37.954Z,5.10
2018-02-06T23:11:05.457Z,5.00
2018-02-06T23:13:33.705Z,4.90
2018-02-06T23:16:01.180Z,4.80
2018-02-06T23:18:30.440Z,5.00
2018-02-06T23:20:57.912Z,4.90
2018-02-06T23:23:25.403Z,5.00
2018-02-06T23:25:53.648Z,5.10
2018-02-06T23:28:21.232Z,5.10
2018-02-06T23:30:49.484Z,5.10
2018-02-06T23:33:17.730Z,5.10
2018-02-06T23:35:45.212Z,5.10
2018-02-06T23:38:12.713Z,5.10
2018-02-06T23:40:40.948Z,5.20
2018-02-06T23:43:08.428Z,5.20
2018-02-06T23:45:36.688Z,5.10
2018-02-06T23:48:04.167Z,5.00
2018-02-06T23:50:32.438Z,5.10
2018-02-06T23:52:59.911Z,5.10
2018-02-06T23:55:28.156Z,5.30
2018-02-06T23:57:55.644Z,5.30
